Accueil
METAR-TAF:

METAR-TAF

Aéroports :

Førde, Norvège

latitude: 61-27N, longitude: 005-52E, altitude: 150 m

Observation

Le bulletin a été fait il y a 18 minutes, à 14:20 UTC
Vent 10 kt de nord
Température 7°C
Humidité 29%
Pression 1010 hPa
Visibilité 10 km ou plus
Quelques nuages à une hauteur de 5000 ft

METAR: ENBL 171420Z 36010KT 9999 FEW050 07/M10 Q1010

Heure: 16:38 (14:38 UTC)

Prévision

Le bulletin a été fait il y a 3 heures et 38 minutes, à 11:00 UTC
Prévision valable du 17 à 12 UTC au 17 à 21 UTC
Vent 5 kt de nord/nord-est
Visibilité 10 km ou plus
Quelques nuages à une hauteur de 4000 ft

TAF: ENBL 171100Z 1712/1721 03005KT 9999 FEW040

Observations et prévisions météorologiques de plus de 4000 aéroports (messages METAR et TAF).

Les stations disponibles sont représentées par des disques jaunes et rouges sur la carte.

Passer la souris dessus pour voir le nom de la station.

Cliquer dessus pour voir les observations et prévisions météorologiques.

Pour changer de carte: cliquez sur les boutons verts avec une croix noire pour zoomer, sur le bouton vert avec un tiret pour effectuer un zoom arrière, ou sur les flèches vertes pour les cartes adjacentes.


METAR-TAF: